Time;durP1;ratioP1;P1;durP2;ratioP2;P2;SDS_P1;SDS_P2;PMS_P1;PMS_P2;Temp;Humidity;BMP_temperature;BMP_pressure;BME280_temperature;BME280_humidity;BME280_pressure;Samples;Min_cycle;Max_cycle;Signal;HPM_P1;HPM_P2
2023/03/08 00:01:18;;;;;;;18.67;8.07;;;;;;;;;;4970455;28;20026;-57
2023/03/08 00:03:43;;;;;;;17.42;7.20;;;;;;;;;;4972602;28;20439;-57
2023/03/08 00:06:14;;;;;;;15.10;6.93;;;;;;;;;;4972324;28;20034;-57
2023/03/08 00:08:40;;;;;;;15.20;7.32;;;;;;;;;;4972601;28;20484;-56
2023/03/08 00:11:07;;;;;;;19.05;7.63;;;;;;;;;;4971408;28;20037;-57
2023/03/08 00:13:33;;;;;;;17.33;7.32;;;;;;;;;;4971275;28;20027;-58
2023/03/08 00:16:00;;;;;;;18.50;7.38;;;;;;;;;;4972408;28;20034;-58
2023/03/08 00:18:25;;;;;;;17.67;7.75;;;;;;;;;;4972242;28;20031;-57
2023/03/08 00:21:04;;;;;;;13.85;6.95;;;;;;;;;;5002897;28;20034;-57
2023/03/08 00:23:30;;;;;;;15.38;7.20;;;;;;;;;;4966769;28;20060;-57
2023/03/08 00:25:56;;;;;;;19.95;6.85;;;;;;;;;;4972064;28;20105;-57
2023/03/08 00:28:21;;;;;;;16.10;8.23;;;;;;;;;;4972162;28;20026;-57
2023/03/08 00:31:01;;;;;;;16.95;7.55;;;;;;;;;;4973054;28;20671;-55
2023/03/08 00:33:27;;;;;;;;;;;;;;;;;;4974177;28;20034;-57
2023/03/08 00:35:57;;;;;;;14.55;6.93;;;;;;;;;;4968208;28;19913;-57
2023/03/08 00:38:23;;;;;;;14.60;6.57;;;;;;;;;;4974599;28;20169;-55
2023/03/08 00:40:48;;;;;;;14.57;7.63;;;;;;;;;;4971087;28;20113;-57
2023/03/08 00:43:14;;;;;;;14.32;7.18;;;;;;;;;;4970931;28;20027;-56
2023/03/08 00:45:39;;;;;;;15.00;6.90;;;;;;;;;;4971922;28;20023;-57
2023/03/08 00:48:05;;;;;;;14.77;7.47;;;;;;;;;;4971780;28;20039;-56
2023/03/08 00:50:30;;;;;;;19.42;7.97;;;;;;;;;;4971212;28;20558;-58
2023/03/08 00:52:55;;;;;;;18.05;7.10;;;;;;;;;;4971833;28;20081;-56
2023/03/08 00:55:21;;;;;;;17.38;7.47;;;;;;;;;;4971541;28;20033;-56
2023/03/08 00:57:46;;;;;;;18.52;8.02;;;;;;;;;;4971873;28;20027;-56
2023/03/08 01:00:12;;;;;;;16.90;7.85;;;;;;;;;;4970828;28;20106;-56
2023/03/08 01:02:40;;;;;;;16.83;7.45;;;;;;;;;;4971780;28;20034;-58
2023/03/08 01:05:07;;;;;;;16.08;7.90;;;;;;;;;;4971506;28;20397;-57
2023/03/08 01:07:32;;;;;;;20.10;8.02;;;;;;;;;;4971743;28;20089;-57
2023/03/08 01:09:58;;;;;;;17.40;7.82;;;;;;;;;;4970677;28;20043;-57
2023/03/08 01:12:24;;;;;;;18.23;7.82;;;;;;;;;;4971194;28;20469;-57
2023/03/08 01:14:51;;;;;;;17.50;7.82;;;;;;;;;;4971674;28;20030;-57
2023/03/08 01:17:16;;;;;;;17.52;7.70;;;;;;;;;;4971609;28;20026;-57
2023/03/08 01:19:41;;;;;;;18.27;7.35;;;;;;;;;;4969754;28;20432;-58
2023/03/08 01:22:07;;;;;;;15.15;7.47;;;;;;;;;;4970321;28;20397;-57
2023/03/08 01:24:32;;;;;;;13.68;7.05;;;;;;;;;;4971294;28;20113;-57
2023/03/08 01:26:59;;;;;;;14.48;7.07;;;;;;;;;;4971274;28;20039;-57
2023/03/08 01:29:26;;;;;;;18.83;7.30;;;;;;;;;;4970705;28;20504;-57
2023/03/08 01:31:52;;;;;;;16.00;7.68;;;;;;;;;;4971247;28;20035;-57
2023/03/08 01:34:17;;;;;;;16.08;8.20;;;;;;;;;;4971584;28;20043;-57
2023/03/08 01:36:42;;;;;;;14.43;6.88;;;;;;;;;;4971442;28;20025;-58
2023/03/08 01:39:08;;;;;;;15.60;6.60;;;;;;;;;;4967797;28;20042;-57
2023/03/08 01:41:33;;;;;;;18.80;8.48;;;;;;;;;;4970812;28;20031;-57
2023/03/08 01:43:59;;;;;;;17.33;7.00;;;;;;;;;;4970943;28;20035;-58
2023/03/08 01:46:31;;;;;;;17.58;8.02;;;;;;;;;;4971351;28;20061;-57
2023/03/08 01:49:16;;;;;;;16.30;7.70;;;;;;;;;;4969222;28;20085;-57
2023/03/08 01:52:07;;;;;;;14.05;6.90;;;;;;;;;;4968633;28;20027;-57
2023/03/08 01:54:52;;;;;;;13.95;6.60;;;;;;;;;;4968611;28;20105;-57
2023/03/08 01:57:30;;;;;;;13.07;6.20;;;;;;;;;;4970615;28;20030;-58
2023/03/08 02:00:05;;;;;;;14.50;6.28;;;;;;;;;;4968409;28;20038;-57
2023/03/08 02:02:37;;;;;;;14.68;6.63;;;;;;;;;;4970418;28;20388;-57
2023/03/08 02:05:03;;;;;;;16.08;6.88;;;;;;;;;;4970136;28;20053;-57
2023/03/08 02:07:28;;;;;;;15.73;6.65;;;;;;;;;;4971343;28;20491;-57
2023/03/08 02:09:54;;;;;;;15.40;6.15;;;;;;;;;;4969120;28;20492;-57
2023/03/08 02:12:20;;;;;;;14.40;6.78;;;;;;;;;;4972393;28;20146;-57
2023/03/08 02:14:46;;;;;;;11.23;5.78;;;;;;;;;;4971070;28;20037;-57
2023/03/08 02:17:12;;;;;;;12.02;6.00;;;;;;;;;;4972673;28;20018;-57
2023/03/08 02:19:43;;;;;;;15.50;7.20;;;;;;;;;;4972552;28;20035;-55
2023/03/08 02:22:11;;;;;;;12.70;6.60;;;;;;;;;;4970157;28;20473;-57
2023/03/08 02:24:36;;;;;;;11.85;5.68;;;;;;;;;;4967747;28;20112;-58
2023/03/08 02:27:06;;;;;;;10.95;5.93;;;;;;;;;;4970800;28;20066;-57
2023/03/08 02:29:32;;;;;;;15.02;6.13;;;;;;;;;;4971280;28;20022;-57
2023/03/08 02:31:57;;;;;;;12.57;5.95;;;;;;;;;;4971508;28;20511;-57
2023/03/08 02:34:23;;;;;;;14.02;5.97;;;;;;;;;;5002426;28;20540;-58
2023/03/08 02:36:48;;;;;;;14.48;6.88;;;;;;;;;;4970692;28;20262;-58
2023/03/08 02:39:13;;;;;;;13.27;6.65;;;;;;;;;;4970333;28;20055;-57
2023/03/08 02:41:39;;;;;;;17.98;6.55;;;;;;;;;;4970191;28;20495;-57
2023/03/08 02:44:04;;;;;;;15.40;6.20;;;;;;;;;;4970630;28;20516;-57
2023/03/08 02:46:29;;;;;;;12.13;6.00;;;;;;;;;;4970724;28;20031;-57
2023/03/08 02:48:55;;;;;;;12.02;5.75;;;;;;;;;;4970868;28;20027;-57
2023/03/08 02:51:20;;;;;;;15.57;6.80;;;;;;;;;;4969495;28;20030;-57
2023/03/08 02:53:45;;;;;;;12.77;6.22;;;;;;;;;;4971358;28;20463;-57
2023/03/08 02:56:11;;;;;;;14.20;5.50;;;;;;;;;;4965184;28;20034;-57
2023/03/08 02:58:36;;;;;;;15.38;6.47;;;;;;;;;;4970312;28;20031;-57
2023/03/08 03:01:02;;;;;;;15.27;6.55;;;;;;;;;;4971327;28;20038;-57
2023/03/08 03:03:27;;;;;;;16.08;6.70;;;;;;;;;;4970041;28;20027;-57
2023/03/08 03:05:52;;;;;;;14.48;6.30;;;;;;;;;;4970311;28;20477;-57
2023/03/08 03:08:18;;;;;;;10.75;5.63;;;;;;;;;;4972080;28;20027;-57
2023/03/08 03:10:43;;;;;;;16.65;6.15;;;;;;;;;;4973402;28;20030;-57
2023/03/08 03:13:09;;;;;;;18.40;7.20;;;;;;;;;;4973516;28;20084;-57
2023/03/08 03:15:38;;;;;;;16.42;7.18;;;;;;;;;;4974238;28;20031;-57
2023/03/08 03:18:04;;;;;;;15.13;7.07;;;;;;;;;;4972947;28;20026;-57
2023/03/08 03:20:31;;;;;;;14.25;6.45;;;;;;;;;;4968525;28;20054;-57
2023/03/08 03:22:57;;;;;;;15.90;7.72;;;;;;;;;;4972915;28;20079;-57
2023/03/08 03:25:23;;;;;;;18.08;7.57;;;;;;;;;;4973629;28;20041;-57
2023/03/08 03:27:48;;;;;;;16.42;6.45;;;;;;;;;;4973702;28;20477;-57
2023/03/08 03:30:14;;;;;;;15.60;7.50;;;;;;;;;;4975388;28;20023;-57
2023/03/08 03:32:39;;;;;;;14.73;6.60;;;;;;;;;;4973777;28;20399;-58
2023/03/08 03:35:05;;;;;;;15.45;6.97;;;;;;;;;;4973736;28;20103;-57
2023/03/08 03:37:33;;;;;;;17.08;6.95;;;;;;;;;;4973809;28;20058;-57
2023/03/08 03:39:58;;;;;;;13.80;6.80;;;;;;;;;;4972658;28;20037;-57
2023/03/08 03:42:23;;;;;;;16.27;7.20;;;;;;;;;;4973339;28;20404;-58
2023/03/08 03:44:49;;;;;;;12.20;6.55;;;;;;;;;;4973368;28;20065;-57
2023/03/08 03:47:15;;;;;;;16.23;6.70;;;;;;;;;;4973965;28;20054;-57
2023/03/08 03:49:40;;;;;;;14.35;6.10;;;;;;;;;;4972872;28;20038;-57
2023/03/08 03:52:06;;;;;;;13.07;6.38;;;;;;;;;;4973179;28;20037;-58
2023/03/08 03:54:31;;;;;;;17.77;7.45;;;;;;;;;;4973254;28;20101;-57
2023/03/08 03:56:57;;;;;;;14.70;6.88;;;;;;;;;;4973014;28;20559;-57
2023/03/08 03:59:24;;;;;;;13.57;6.68;;;;;;;;;;4972206;28;20034;-56
2023/03/08 04:01:49;;;;;;;15.27;7.38;;;;;;;;;;4972702;28;20126;-57
2023/03/08 04:04:14;;;;;;;14.55;6.72;;;;;;;;;;4973445;28;20113;-58
2023/03/08 04:06:40;;;;;;;17.30;7.20;;;;;;;;;;4973322;28;20041;-57
2023/03/08 04:09:12;;;;;;;15.55;6.80;;;;;;;;;;4970502;28;20030;-56
2023/03/08 04:11:38;;;;;;;15.52;6.88;;;;;;;;;;4972710;28;20494;-56
2023/03/08 04:14:04;;;;;;;16.63;7.72;;;;;;;;;;4972932;28;20031;-57
2023/03/08 04:16:32;;;;;;;14.73;7.35;;;;;;;;;;4973357;28;20109;-57
2023/03/08 04:19:00;;;;;;;14.45;6.65;;;;;;;;;;4972503;28;20118;-58
2023/03/08 04:21:26;;;;;;;14.10;7.15;;;;;;;;;;4967419;28;20030;-57
2023/03/08 04:23:52;;;;;;;14.85;7.68;;;;;;;;;;4972360;28;20082;-56
2023/03/08 04:26:17;;;;;;;14.77;7.00;;;;;;;;;;4974833;28;20065;-56
2023/03/08 04:28:43;;;;;;;18.02;7.72;;;;;;;;;;4975018;28;20037;-56
2023/03/08 04:31:24;;;;;;;18.63;8.18;;;;;;;;;;4971086;28;20492;-55
2023/03/08 04:33:50;;;;;;;14.02;6.75;;;;;;;;;;4972586;28;20038;-58
2023/03/08 04:36:17;;;;;;;19.48;8.55;;;;;;;;;;4972595;28;20031;-56
2023/03/08 04:38:44;;;;;;;16.30;7.47;;;;;;;;;;4972407;28;20022;-55
2023/03/08 04:41:12;;;;;;;18.58;8.55;;;;;;;;;;4971350;28;20050;-57
2023/03/08 04:43:45;;;;;;;17.88;7.97;;;;;;;;;;4972379;28;20515;-56
2023/03/08 04:46:11;;;;;;;18.70;8.85;;;;;;;;;;4972534;28;20035;-55
2023/03/08 04:48:37;;;;;;;18.90;8.15;;;;;;;;;;4972439;28;20031;-56
2023/03/08 04:51:04;;;;;;;18.42;8.23;;;;;;;;;;4971117;28;20022;-55
2023/03/08 04:53:31;;;;;;;24.38;9.40;;;;;;;;;;4971770;28;20135;-57
2023/03/08 04:55:58;;;;;;;19.10;9.15;;;;;;;;;;4972237;28;20067;-57
2023/03/08 04:58:24;;;;;;;23.02;10.23;;;;;;;;;;4972502;28;20400;-57
2023/03/08 05:00:49;;;;;;;22.42;9.40;;;;;;;;;;4971109;28;20047;-60
2023/03/08 05:03:15;;;;;;;22.67;10.02;;;;;;;;;;4971779;28;20034;-56
2023/03/08 05:05:54;;;;;;;20.10;10.23;;;;;;;;;;4972049;28;20138;-57
2023/03/08 05:08:21;;;;;;;19.23;9.15;;;;;;;;;;4971738;28;20106;-58
2023/03/08 05:10:47;;;;;;;24.75;10.27;;;;;;;;;;4971066;28;20035;-58
2023/03/08 05:13:13;;;;;;;26.55;10.73;;;;;;;;;;4971364;28;20388;-55
2023/03/08 05:15:38;;;;;;;24.70;9.82;;;;;;;;;;4971318;28;20027;-55
2023/03/08 05:18:04;;;;;;;27.35;10.48;;;;;;;;;;4971639;28;20566;-56
2023/03/08 05:20:29;;;;;;;20.92;9.38;;;;;;;;;;4970915;28;20034;-54
2023/03/08 05:22:55;;;;;;;25.08;10.48;;;;;;;;;;4967040;28;20054;-55
2023/03/08 05:25:20;;;;;;;22.52;9.90;;;;;;;;;;4972470;28;20026;-54
2023/03/08 05:27:45;;;;;;;24.98;10.43;;;;;;;;;;4972412;28;20676;-57
2023/03/08 05:30:11;;;;;;;22.75;10.77;;;;;;;;;;4969116;28;20027;-56
2023/03/08 05:32:36;;;;;;;21.60;10.32;;;;;;;;;;4968797;28;20038;-54
2023/03/08 05:35:02;;;;;;;22.30;10.60;;;;;;;;;;4966033;28;20035;-55
2023/03/08 05:37:27;;;;;;;27.77;11.40;;;;;;;;;;4971264;28;20499;-54
2023/03/08 05:39:53;;;;;;;27.77;11.35;;;;;;;;;;4969651;28;20030;-55
2023/03/08 05:42:19;;;;;;;26.92;11.45;;;;;;;;;;4971678;28;20034;-54
2023/03/08 05:44:45;;;;;;;24.15;11.13;;;;;;;;;;4971695;28;20045;-54
2023/03/08 05:47:10;;;;;;;29.02;11.63;;;;;;;;;;4971412;28;20448;-56
2023/03/08 05:49:36;;;;;;;28.63;10.73;;;;;;;;;;4969971;28;20034;-57
2023/03/08 05:52:01;;;;;;;28.05;11.82;;;;;;;;;;4970462;28;20035;-56
2023/03/08 05:54:26;;;;;;;29.10;12.40;;;;;;;;;;4972657;28;20022;-55
2023/03/08 05:56:52;;;;;;;25.77;11.32;;;;;;;;;;5003735;28;20032;-56
2023/03/08 05:59:18;;;;;;;26.08;10.85;;;;;;;;;;4973091;28;20480;-56
2023/03/08 06:01:43;;;;;;;29.92;12.13;;;;;;;;;;4970970;28;20033;-55
2023/03/08 06:04:08;;;;;;;24.58;11.80;;;;;;;;;;4971344;28;20038;-56
2023/03/08 06:06:34;;;;;;;26.20;12.57;;;;;;;;;;4971057;28;20037;-57
2023/03/08 06:08:59;;;;;;;26.00;12.15;;;;;;;;;;4971164;28;20022;-56
2023/03/08 06:11:25;;;;;;;29.70;12.07;;;;;;;;;;4970282;28;20027;-56
2023/03/08 06:13:50;;;;;;;37.80;13.50;;;;;;;;;;4971309;28;20035;-56
2023/03/08 06:16:16;;;;;;;35.28;14.02;;;;;;;;;;4971354;28;20395;-55
2023/03/08 06:18:42;;;;;;;30.88;12.73;;;;;;;;;;4971457;28;20030;-55
2023/03/08 06:21:15;;;;;;;28.60;12.88;;;;;;;;;;4971830;28;20664;-55
2023/03/08 06:23:41;;;;;;;31.02;12.75;;;;;;;;;;4970935;28;20081;-56
2023/03/08 06:26:08;;;;;;;30.52;13.63;;;;;;;;;;4973253;28;20113;-55
2023/03/08 06:28:33;;;;;;;32.53;14.18;;;;;;;;;;4971292;28;20034;-56
2023/03/08 06:30:59;;;;;;;35.10;13.35;;;;;;;;;;4970179;28;20027;-56
2023/03/08 06:33:27;;;;;;;31.33;12.88;;;;;;;;;;4970797;28;20026;-55
2023/03/08 06:36:07;;;;;;;36.03;14.27;;;;;;;;;;4970334;28;20117;-56
2023/03/08 06:38:34;;;;;;;27.63;12.75;;;;;;;;;;4972806;28;20023;-55
2023/03/08 06:41:01;;;;;;;30.52;14.48;;;;;;;;;;4970394;28;20039;-55
2023/03/08 06:43:27;;;;;;;30.52;13.25;;;;;;;;;;4974015;28;20019;-55
2023/03/08 06:45:52;;;;;;;38.63;15.85;;;;;;;;;;4974805;28;20030;-59
2023/03/08 06:48:18;;;;;;;34.90;13.48;;;;;;;;;;4974971;28;20396;-55
2023/03/08 06:50:44;;;;;;;33.70;13.40;;;;;;;;;;4972166;28;20023;-55
2023/03/08 06:53:10;;;;;;;30.98;13.65;;;;;;;;;;4974481;28;20014;-55
2023/03/08 06:55:37;;;;;;;29.38;13.70;;;;;;;;;;4974846;28;20042;-53
2023/03/08 06:58:03;;;;;;;34.00;13.60;;;;;;;;;;4974611;28;20027;-55
2023/03/08 07:00:28;;;;;;;39.92;14.73;;;;;;;;;;4973718;28;20033;-55
2023/03/08 07:02:54;;;;;;;32.50;13.38;;;;;;;;;;4974092;28;20110;-55
2023/03/08 07:05:20;;;;;;;33.03;12.43;;;;;;;;;;4975917;28;20065;-55
2023/03/08 07:07:46;;;;;;;32.75;13.75;;;;;;;;;;4974723;28;20019;-56
2023/03/08 07:10:16;;;;;;;31.00;12.82;;;;;;;;;;4973845;28;20026;-55
2023/03/08 07:12:45;;;;;;;35.55;13.70;;;;;;;;;;4976058;28;20177;-55
2023/03/08 07:15:13;;;;;;;35.08;14.23;;;;;;;;;;4974356;28;20090;-56
2023/03/08 07:17:40;;;;;;;29.50;12.82;;;;;;;;;;4970369;28;20050;-55
2023/03/08 07:20:06;;;;;;;36.08;14.60;;;;;;;;;;4974315;28;20042;-56
2023/03/08 07:22:32;;;;;;;32.38;14.13;;;;;;;;;;4972555;28;20027;-55
2023/03/08 07:24:57;;;;;;;32.47;13.85;;;;;;;;;;4976392;28;20173;-54
2023/03/08 07:27:23;;;;;;;35.40;14.57;;;;;;;;;;4974405;28;20057;-54
2023/03/08 07:29:49;;;;;;;32.15;14.40;;;;;;;;;;4973225;28;20102;-55
2023/03/08 07:32:14;;;;;;;35.17;13.85;;;;;;;;;;4973663;28;20158;-55
2023/03/08 07:34:40;;;;;;;35.22;13.40;;;;;;;;;;4974079;28;20657;-54
2023/03/08 07:37:14;;;;;;;36.00;13.43;;;;;;;;;;4974052;28;20038;-55
2023/03/08 07:39:41;;;;;;;28.55;12.35;;;;;;;;;;4973328;28;20496;-55
2023/03/08 07:42:07;;;;;;;27.67;12.25;;;;;;;;;;4973737;28;20117;-55
2023/03/08 07:44:32;;;;;;;27.73;11.63;;;;;;;;;;4973955;28;20106;-55
2023/03/08 07:46:58;;;;;;;27.33;11.60;;;;;;;;;;4974042;28;20559;-55
2023/03/08 07:49:23;;;;;;;30.20;12.10;;;;;;;;;;4972901;28;21033;-54
2023/03/08 07:51:50;;;;;;;28.52;12.02;;;;;;;;;;4973408;28;20038;-54
2023/03/08 07:54:15;;;;;;;27.05;11.20;;;;;;;;;;4973063;28;20026;-55
2023/03/08 07:56:41;;;;;;;30.25;11.57;;;;;;;;;;4973802;28;20510;-56
2023/03/08 07:59:06;;;;;;;25.83;10.82;;;;;;;;;;4972877;28;20597;-55
2023/03/08 08:01:32;;;;;;;26.65;11.88;;;;;;;;;;4973197;28;20440;-56
2023/03/08 08:03:58;;;;;;;26.13;11.18;;;;;;;;;;4971986;28;20039;-55
2023/03/08 08:06:24;;;;;;;29.52;10.88;;;;;;;;;;4973818;28;20396;-56
2023/03/08 08:08:50;;;;;;;25.75;11.07;;;;;;;;;;4973367;28;20026;-56
2023/03/08 08:11:16;;;;;;;23.80;9.98;;;;;;;;;;4972275;28;20033;-55
2023/03/08 08:13:42;;;;;;;22.48;9.52;;;;;;;;;;4973362;28;20022;-57
2023/03/08 08:16:08;;;;;;;24.40;11.25;;;;;;;;;;4973292;28;20695;-56
2023/03/08 08:18:34;;;;;;;22.40;9.75;;;;;;;;;;4973361;28;20062;-56
2023/03/08 08:21:06;;;;;;;25.33;10.35;;;;;;;;;;4972479;28;20437;-56
2023/03/08 08:23:32;;;;;;;24.85;10.40;;;;;;;;;;4975117;28;20022;-55
2023/03/08 08:25:58;;;;;;;27.30;10.68;;;;;;;;;;4974878;28;20408;-56
2023/03/08 08:28:25;;;;;;;22.30;10.02;;;;;;;;;;4973469;28;20031;-55
2023/03/08 08:30:58;;;;;;;25.77;10.30;;;;;;;;;;4973148;28;20029;-56
2023/03/08 08:33:24;;;;;;;26.00;11.02;;;;;;;;;;4972773;28;20497;-55
2023/03/08 08:35:49;;;;;;;22.10;9.93;;;;;;;;;;4973183;28;20034;-55
2023/03/08 08:38:15;;;;;;;20.65;9.20;;;;;;;;;;4972891;28;20026;-55
2023/03/08 08:40:40;;;;;;;21.63;9.88;;;;;;;;;;4971817;28;20038;-56
2023/03/08 08:43:06;;;;;;;23.88;10.65;;;;;;;;;;4972431;28;20093;-55
2023/03/08 08:45:31;;;;;;;22.88;10.25;;;;;;;;;;4972828;28;20038;-56
2023/03/08 08:47:56;;;;;;;21.50;9.98;;;;;;;;;;4971265;28;20023;-57
2023/03/08 08:50:22;;;;;;;22.67;10.40;;;;;;;;;;4972115;28;20027;-56
2023/03/08 08:52:47;;;;;;;22.58;10.48;;;;;;;;;;4972209;28;20097;-54
2023/03/08 08:55:13;;;;;;;22.15;9.70;;;;;;;;;;4972304;28;20027;-56
2023/03/08 08:57:38;;;;;;;20.88;9.63;;;;;;;;;;4972758;28;20027;-56
2023/03/08 09:00:07;;;;;;;23.65;11.05;;;;;;;;;;4971698;28;20027;-56
2023/03/08 09:02:32;;;;;;;22.42;9.98;;;;;;;;;;4972193;28;20019;-57
2023/03/08 09:04:58;;;;;;;21.10;9.63;;;;;;;;;;4971680;28;20031;-55
2023/03/08 09:07:23;;;;;;;22.05;9.57;;;;;;;;;;4971919;28;20054;-56
2023/03/08 09:09:48;;;;;;;19.52;9.38;;;;;;;;;;4971212;28;20096;-56
2023/03/08 09:12:14;;;;;;;20.20;9.38;;;;;;;;;;4972211;28;20018;-57
2023/03/08 09:14:39;;;;;;;21.15;9.18;;;;;;;;;;4972738;28;20468;-56
2023/03/08 09:17:05;;;;;;;19.25;8.68;;;;;;;;;;4971762;28;20616;-55
2023/03/08 09:19:31;;;;;;;21.83;9.43;;;;;;;;;;4970760;28;20026;-54
2023/03/08 09:21:57;;;;;;;21.55;9.60;;;;;;;;;;4973582;28;20472;-56
2023/03/08 09:24:22;;;;;;;18.95;8.30;;;;;;;;;;4974150;28;20084;-56
2023/03/08 09:26:48;;;;;;;19.42;8.35;;;;;;;;;;4971655;28;20034;-56
2023/03/08 09:29:13;;;;;;;19.05;9.00;;;;;;;;;;4971584;28;20033;-55
2023/03/08 09:31:39;;;;;;;19.02;8.98;;;;;;;;;;4971654;28;20084;-57
2023/03/08 09:34:07;;;;;;;19.05;8.70;;;;;;;;;;4971926;28;20027;-56
2023/03/08 09:36:33;;;;;;;15.73;8.40;;;;;;;;;;4971951;28;20469;-56
2023/03/08 09:38:58;;;;;;;18.50;8.77;;;;;;;;;;4971545;28;20110;-56
2023/03/08 09:41:47;;;;;;;15.98;7.72;;;;;;;;;;4970996;28;20026;-56
2023/03/08 09:44:34;;;;;;;19.98;8.73;;;;;;;;;;4967282;28;20103;-55
2023/03/08 09:47:17;;;;;;;15.45;7.68;;;;;;;;;;4970784;28;20031;-56
2023/03/08 09:49:47;;;;;;;15.70;7.63;;;;;;;;;;4971151;28;20169;-56
2023/03/08 09:52:39;;;;;;;12.60;6.15;;;;;;;;;;4967442;28;20395;-55
2023/03/08 09:55:19;;;;;;;14.65;6.88;;;;;;;;;;4970548;28;20045;-56
2023/03/08 09:57:52;;;;;;;14.30;7.00;;;;;;;;;;4971601;28;20033;-55
2023/03/08 10:00:27;;;;;;;16.08;6.82;;;;;;;;;;4971971;28;20031;-56
2023/03/08 10:03:14;;;;;;;13.23;6.03;;;;;;;;;;4967631;28;20113;-57
2023/03/08 10:05:40;;;;;;;9.90;5.57;;;;;;;;;;4967372;28;20073;-56
2023/03/08 10:08:15;;;;;;;14.63;6.90;;;;;;;;;;4970783;28;20122;-55
2023/03/08 10:11:00;;;;;;;12.85;5.70;;;;;;;;;;4970454;28;20449;-55
2023/03/08 10:13:36;;;;;;;10.07;5.43;;;;;;;;;;4970733;28;20459;-56
2023/03/08 10:16:20;;;;;;;10.35;4.88;;;;;;;;;;4971027;28;20023;-56
2023/03/08 10:18:50;;;;;;;10.32;5.00;;;;;;;;;;4967955;28;20683;-54
2023/03/08 10:21:19;;;;;;;8.38;4.50;;;;;;;;;;4972450;28;20035;-56
2023/03/08 10:23:46;;;;;;;9.05;4.35;;;;;;;;;;4972437;28;20022;-56
2023/03/08 10:26:14;;;;;;;7.72;4.18;;;;;;;;;;4971077;28;20045;-56
2023/03/08 10:28:40;;;;;;;6.35;4.00;;;;;;;;;;4971314;28;20027;-57
2023/03/08 10:31:20;;;;;;;7.25;3.47;;;;;;;;;;4970228;28;20031;-55
2023/03/08 10:33:47;;;;;;;7.32;4.10;;;;;;;;;;4972466;28;20034;-56
2023/03/08 10:36:18;;;;;;;3.95;2.85;;;;;;;;;;4965900;28;20065;-56
2023/03/08 10:39:15;;;;;;;2.92;1.67;;;;;;;;;;4970912;28;20115;-55
2023/03/08 10:41:43;;;;;;;3.47;2.00;;;;;;;;;;4969426;28;20027;-57
2023/03/08 10:44:32;;;;;;;1.73;1.35;;;;;;;;;;4970755;28;20046;-56
2023/03/08 10:46:58;;;;;;;3.28;1.52;;;;;;;;;;4969504;28;20105;-56
2023/03/08 10:49:24;;;;;;;3.58;1.73;;;;;;;;;;4970900;28;20026;-56
2023/03/08 10:51:57;;;;;;;1.95;1.77;;;;;;;;;;4971882;28;20101;-56
2023/03/08 10:54:23;;;;;;;4.90;1.70;;;;;;;;;;5002087;28;20054;-56
2023/03/08 10:56:55;;;;;;;2.85;2.00;;;;;;;;;;4971000;28;20112;-56
2023/03/08 10:59:32;;;;;;;1.80;1.50;;;;;;;;;;4971825;28;20047;-56
2023/03/08 11:02:02;;;;;;;2.22;1.70;;;;;;;;;;4968684;28;20530;-56
2023/03/08 11:04:29;;;;;;;2.15;1.40;;;;;;;;;;4969588;28;20517;-55
2023/03/08 11:06:54;;;;;;;1.75;1.30;;;;;;;;;;4970674;28;20033;-56
2023/03/08 11:09:30;;;;;;;3.10;1.90;;;;;;;;;;4972296;28;20018;-56
2023/03/08 11:11:57;;;;;;;1.42;1.10;;;;;;;;;;4970559;28;20039;-56
2023/03/08 11:14:24;;;;;;;2.00;1.42;;;;;;;;;;4970878;28;20050;-56
2023/03/08 11:16:52;;;;;;;4.15;1.80;;;;;;;;;;4970716;28;20033;-55
2023/03/08 11:19:58;;;;;;;4.35;1.60;;;;;;;;;;4969938;28;20515;-56
2023/03/08 11:22:36;;;;;;;2.38;1.17;;;;;;;;;;4966622;28;20054;-57
2023/03/08 11:25:01;;;;;;;1.85;1.50;;;;;;;;;;4971093;28;20039;-55
2023/03/08 11:27:43;;;;;;;2.05;1.45;;;;;;;;;;4970745;28;20253;-56
2023/03/08 11:30:14;;;;;;;2.05;1.27;;;;;;;;;;4973130;28;20515;-56
2023/03/08 11:33:07;;;;;;;2.20;1.40;;;;;;;;;;4974051;28;20064;-56
2023/03/08 11:35:42;;;;;;;3.00;1.63;;;;;;;;;;4970008;28;20019;-57
2023/03/08 11:38:17;;;;;;;2.60;1.75;;;;;;;;;;4971002;28;20023;-57
2023/03/08 11:40:57;;;;;;;2.60;1.50;;;;;;;;;;4973311;28;20027;-56
2023/03/08 11:43:32;;;;;;;3.47;1.77;;;;;;;;;;4969152;28;20070;-56
2023/03/08 11:46:00;;;;;;;2.38;1.38;;;;;;;;;;4971575;28;20039;-56
2023/03/08 11:48:31;;;;;;;8.10;1.85;;;;;;;;;;4973682;28;20038;-57
2023/03/08 11:51:11;;;;;;;3.28;2.08;;;;;;;;;;4969783;28;20098;-57
2023/03/08 11:53:58;;;;;;;4.90;1.63;;;;;;;;;;4969175;28;20122;-56
2023/03/08 11:56:29;;;;;;;4.93;2.45;;;;;;;;;;4971907;28;20031;-57
2023/03/08 11:58:57;;;;;;;4.90;1.92;;;;;;;;;;4966581;28;20027;-55
2023/03/08 12:01:27;;;;;;;5.90;1.80;;;;;;;;;;4970959;28;20070;-55
2023/03/08 12:03:57;;;;;;;1.85;1.35;;;;;;;;;;4972102;28;20034;-57
2023/03/08 12:06:29;;;;;;;2.50;1.50;;;;;;;;;;4972416;28;20053;-57
2023/03/08 12:09:06;;;;;;;3.80;1.65;;;;;;;;;;4973785;28;20188;-57
2023/03/08 12:11:39;;;;;;;5.38;1.60;;;;;;;;;;4966915;28;20035;-56
2023/03/08 12:14:21;;;;;;;3.90;1.20;;;;;;;;;;4972030;28;20412;-54
2023/03/08 12:17:03;;;;;;;2.08;1.00;;;;;;;;;;4966383;28;20097;-55
2023/03/08 12:19:43;;;;;;;6.82;1.70;;;;;;;;;;4969188;28;20031;-55
2023/03/08 12:22:20;;;;;;;2.05;1.30;;;;;;;;;;4970702;28;20097;-55
2023/03/08 12:24:46;;;;;;;2.15;1.15;;;;;;;;;;4971554;28;20031;-55
2023/03/08 12:27:35;;;;;;;1.48;0.90;;;;;;;;;;4971649;28;20452;-53
2023/03/08 12:30:10;;;;;;;1.38;1.02;;;;;;;;;;4971354;28;20089;-55
2023/03/08 12:32:37;;;;;;;1.70;1.30;;;;;;;;;;4971788;28;20081;-55
2023/03/08 12:35:31;;;;;;;3.03;1.27;;;;;;;;;;4972195;28;20022;-56
2023/03/08 12:38:00;;;;;;;2.78;1.70;;;;;;;;;;4970352;28;20042;-55
2023/03/08 12:40:27;;;;;;;;;;;;;;;;;;4970630;28;20293;-55
2023/03/08 12:43:11;;;;;;;3.05;1.00;;;;;;;;;;4971332;28;19925;-57
2023/03/08 12:45:38;;;;;;;1.35;1.17;;;;;;;;;;4971842;28;20416;-56
2023/03/08 12:48:03;;;;;;;2.40;1.15;;;;;;;;;;4970459;28;20035;-56
2023/03/08 12:50:32;;;;;;;1.08;0.98;;;;;;;;;;4970921;28;20027;-56
2023/03/08 12:52:57;;;;;;;1.27;1.08;;;;;;;;;;4969832;28;20027;-56
2023/03/08 12:55:32;;;;;;;1.02;0.90;;;;;;;;;;4973088;28;20066;-56
2023/03/08 12:58:03;;;;;;;0.60;0.60;;;;;;;;;;4969145;28;20528;-57
2023/03/08 13:00:35;;;;;;;1.77;0.90;;;;;;;;;;4970990;28;20027;-55
2023/03/08 13:03:05;;;;;;;1.55;1.40;;;;;;;;;;4971275;28;20078;-56
2023/03/08 13:05:36;;;;;;;3.83;2.10;;;;;;;;;;4970012;28;20041;-56
2023/03/08 13:08:14;;;;;;;0.80;0.80;;;;;;;;;;4971476;28;20039;-55
2023/03/08 13:10:51;;;;;;;1.65;0.70;;;;;;;;;;4967417;28;20033;-56
2023/03/08 13:13:32;;;;;;;2.10;1.00;;;;;;;;;;4972411;28;20072;-55
2023/03/08 13:16:27;;;;;;;2.42;1.00;;;;;;;;;;4971120;28;20039;-56
2023/03/08 13:19:12;;;;;;;3.03;1.10;;;;;;;;;;4966994;28;20050;-56
2023/03/08 13:21:45;;;;;;;3.78;1.80;;;;;;;;;;4968270;28;20018;-56
2023/03/08 13:24:29;;;;;;;1.70;1.00;;;;;;;;;;4968521;28;20039;-56
2023/03/08 13:27:07;;;;;;;1.20;1.10;;;;;;;;;;4969957;28;21050;-57
2023/03/08 13:29:33;;;;;;;1.27;1.17;;;;;;;;;;4970447;28;20030;-55
2023/03/08 13:32:15;;;;;;;1.10;1.00;;;;;;;;;;4970813;28;20034;-56
2023/03/08 13:34:40;;;;;;;1.42;1.23;;;;;;;;;;4970661;28;20393;-57
2023/03/08 13:37:27;;;;;;;3.83;1.30;;;;;;;;;;4967643;28;20117;-56
2023/03/08 13:39:58;;;;;;;1.42;1.13;;;;;;;;;;4968531;28;20115;-57
2023/03/08 13:42:26;;;;;;;3.35;1.30;;;;;;;;;;4969665;28;20504;-56
2023/03/08 13:45:04;;;;;;;2.65;1.20;;;;;;;;;;4972109;28;20141;-56
2023/03/08 13:47:33;;;;;;;1.00;1.00;;;;;;;;;;4969016;28;20027;-56
2023/03/08 13:49:58;;;;;;;2.30;1.17;;;;;;;;;;4966967;28;20079;-56
2023/03/08 13:52:31;;;;;;;1.05;0.88;;;;;;;;;;4967823;28;20481;-56
2023/03/08 13:55:00;;;;;;;5.22;1.88;;;;;;;;;;4968364;28;20448;-57
2023/03/08 13:57:35;;;;;;;1.83;1.10;;;;;;;;;;4968978;28;20031;-56
2023/03/08 14:00:20;;;;;;;2.53;1.40;;;;;;;;;;4966331;28;20030;-56
2023/03/08 14:02:46;;;;;;;5.60;1.80;;;;;;;;;;4968515;28;20026;-55
2023/03/08 14:05:21;;;;;;;1.30;0.98;;;;;;;;;;4969958;28;20019;-55
2023/03/08 14:08:02;;;;;;;2.78;1.40;;;;;;;;;;4964222;28;20034;-56
2023/03/08 14:10:33;;;;;;;2.33;1.00;;;;;;;;;;4960560;28;20035;-56
2023/03/08 14:12:58;;;;;;;6.28;1.35;;;;;;;;;;4967298;28;20104;-56
2023/03/08 14:15:24;;;;;;;3.13;1.40;;;;;;;;;;4969563;28;20114;-57
2023/03/08 14:17:49;;;;;;;2.05;1.35;;;;;;;;;;4970968;28;20039;-55
2023/03/08 14:20:21;;;;;;;3.22;1.20;;;;;;;;;;4963936;28;20029;-55
2023/03/08 14:22:49;;;;;;;1.17;0.90;;;;;;;;;;4968298;28;20030;-60
2023/03/08 14:25:21;;;;;;;3.13;1.92;;;;;;;;;;4964475;28;20034;-57
2023/03/08 14:27:46;;;;;;;3.17;1.17;;;;;;;;;;4965159;28;20027;-57
2023/03/08 14:30:14;;;;;;;3.80;1.00;;;;;;;;;;4968605;28;20034;-56
2023/03/08 14:32:55;;;;;;;1.85;1.20;;;;;;;;;;4968795;28;20105;-57
2023/03/08 14:35:34;;;;;;;1.55;1.17;;;;;;;;;;4971647;28;20027;-57
2023/03/08 14:38:00;;;;;;;3.30;1.42;;;;;;;;;;4967254;28;20042;-57
2023/03/08 14:40:29;;;;;;;3.08;1.30;;;;;;;;;;4968008;28;20058;-57
2023/03/08 14:43:01;;;;;;;3.30;1.30;;;;;;;;;;4966635;28;20049;-59